sensor_id;sensor_type;location;lat;lon;timestamp;P1;durP1;ratioP1;P2;durP2;ratioP2
48002;SDS011;33768;48.578;11.574;2022-12-20T00:01:57;34.77;;;18.63;;
48002;SDS011;33768;48.578;11.574;2022-12-20T00:05:02;32.57;;;18.07;;
48002;SDS011;33768;48.578;11.574;2022-12-20T00:08:06;30.93;;;17.17;;
48002;SDS011;33768;48.578;11.574;2022-12-20T00:11:11;30.83;;;17.33;;
48002;SDS011;33768;48.578;11.574;2022-12-20T00:14:15;31.37;;;17.27;;
48002;SDS011;33768;48.578;11.574;2022-12-20T00:17:20;31.60;;;17.67;;
48002;SDS011;33768;48.578;11.574;2022-12-20T00:20:25;30.37;;;16.73;;
48002;SDS011;33768;48.578;11.574;2022-12-20T00:23:30;32.10;;;18.33;;
48002;SDS011;33768;48.578;11.574;2022-12-20T00:26:35;35.40;;;17.53;;
48002;SDS011;33768;48.578;11.574;2022-12-20T00:29:40;32.80;;;18.00;;
48002;SDS011;33768;48.578;11.574;2022-12-20T00:32:45;29.97;;;17.43;;
48002;SDS011;33768;48.578;11.574;2022-12-20T00:35:50;32.67;;;18.20;;
48002;SDS011;33768;48.578;11.574;2022-12-20T00:38:57;33.77;;;18.77;;
48002;SDS011;33768;48.578;11.574;2022-12-20T00:42:03;31.77;;;17.33;;
48002;SDS011;33768;48.578;11.574;2022-12-20T00:45:07;30.17;;;17.47;;
48002;SDS011;33768;48.578;11.574;2022-12-20T00:48:11;30.53;;;17.60;;
48002;SDS011;33768;48.578;11.574;2022-12-20T00:51:17;31.47;;;17.13;;
48002;SDS011;33768;48.578;11.574;2022-12-20T00:54:23;33.90;;;17.97;;
48002;SDS011;33768;48.578;11.574;2022-12-20T00:57:27;29.97;;;17.93;;
48002;SDS011;33768;48.578;11.574;2022-12-20T01:00:31;35.57;;;18.93;;
48002;SDS011;33768;48.578;11.574;2022-12-20T01:03:35;36.33;;;18.70;;
48002;SDS011;33768;48.578;11.574;2022-12-20T01:06:39;36.67;;;20.03;;
48002;SDS011;33768;48.578;11.574;2022-12-20T01:09:44;31.17;;;18.60;;
48002;SDS011;33768;48.578;11.574;2022-12-20T01:12:48;32.07;;;18.03;;
48002;SDS011;33768;48.578;11.574;2022-12-20T01:15:52;35.43;;;17.97;;
48002;SDS011;33768;48.578;11.574;2022-12-20T01:18:56;35.80;;;19.13;;
48002;SDS011;33768;48.578;11.574;2022-12-20T01:22:00;34.17;;;18.00;;
48002;SDS011;33768;48.578;11.574;2022-12-20T01:25:05;32.47;;;17.37;;
48002;SDS011;33768;48.578;11.574;2022-12-20T01:28:09;30.90;;;17.60;;
48002;SDS011;33768;48.578;11.574;2022-12-20T01:31:15;32.73;;;17.83;;
48002;SDS011;33768;48.578;11.574;2022-12-20T01:34:20;33.80;;;18.77;;
48002;SDS011;33768;48.578;11.574;2022-12-20T01:37:24;32.57;;;17.87;;
48002;SDS011;33768;48.578;11.574;2022-12-20T01:40:28;33.63;;;18.10;;
48002;SDS011;33768;48.578;11.574;2022-12-20T01:47:09;35.37;;;17.73;;
48002;SDS011;33768;48.578;11.574;2022-12-20T01:50:15;28.07;;;16.63;;
48002;SDS011;33768;48.578;11.574;2022-12-20T01:53:19;34.97;;;18.50;;
48002;SDS011;33768;48.578;11.574;2022-12-20T01:56:26;28.43;;;15.93;;
48002;SDS011;33768;48.578;11.574;2022-12-20T01:59:30;31.27;;;17.40;;
48002;SDS011;33768;48.578;11.574;2022-12-20T02:02:38;30.93;;;18.10;;
48002;SDS011;33768;48.578;11.574;2022-12-20T02:05:44;30.97;;;17.47;;
48002;SDS011;33768;48.578;11.574;2022-12-20T02:08:49;32.83;;;19.00;;
48002;SDS011;33768;48.578;11.574;2022-12-20T02:12:08;30.47;;;17.13;;
48002;SDS011;33768;48.578;11.574;2022-12-20T02:15:20;30.63;;;18.27;;
48002;SDS011;33768;48.578;11.574;2022-12-20T02:21:51;29.63;;;16.83;;
48002;SDS011;33768;48.578;11.574;2022-12-20T02:31:45;35.93;;;17.73;;
48002;SDS011;33768;48.578;11.574;2022-12-20T02:35:00;32.33;;;17.53;;
48002;SDS011;33768;48.578;11.574;2022-12-20T02:41:40;31.53;;;17.57;;
48002;SDS011;33768;48.578;11.574;2022-12-20T02:44:51;31.50;;;17.93;;
48002;SDS011;33768;48.578;11.574;2022-12-20T02:48:18;32.70;;;17.40;;
48002;SDS011;33768;48.578;11.574;2022-12-20T02:51:24;32.80;;;17.10;;
48002;SDS011;33768;48.578;11.574;2022-12-20T02:54:32;35.47;;;17.30;;
48002;SDS011;33768;48.578;11.574;2022-12-20T03:00:42;29.97;;;17.57;;
48002;SDS011;33768;48.578;11.574;2022-12-20T03:03:50;31.43;;;17.93;;
48002;SDS011;33768;48.578;11.574;2022-12-20T03:06:58;30.80;;;17.57;;
48002;SDS011;33768;48.578;11.574;2022-12-20T03:10:07;28.43;;;16.37;;
48002;SDS011;33768;48.578;11.574;2022-12-20T03:13:12;33.60;;;18.10;;
48002;SDS011;33768;48.578;11.574;2022-12-20T03:16:24;31.60;;;17.00;;
48002;SDS011;33768;48.578;11.574;2022-12-20T03:19:28;29.40;;;17.77;;
48002;SDS011;33768;48.578;11.574;2022-12-20T03:22:34;35.57;;;18.77;;
48002;SDS011;33768;48.578;11.574;2022-12-20T03:25:38;34.13;;;17.43;;
48002;SDS011;33768;48.578;11.574;2022-12-20T03:28:44;30.03;;;17.67;;
48002;SDS011;33768;48.578;11.574;2022-12-20T03:31:52;33.10;;;17.50;;
48002;SDS011;33768;48.578;11.574;2022-12-20T03:34:56;33.83;;;18.50;;
48002;SDS011;33768;48.578;11.574;2022-12-20T03:38:07;33.23;;;18.23;;
48002;SDS011;33768;48.578;11.574;2022-12-20T03:41:12;33.67;;;17.77;;
48002;SDS011;33768;48.578;11.574;2022-12-20T03:44:16;30.40;;;16.77;;
48002;SDS011;33768;48.578;11.574;2022-12-20T03:47:20;29.27;;;17.43;;
48002;SDS011;33768;48.578;11.574;2022-12-20T03:50:25;31.57;;;18.30;;
48002;SDS011;33768;48.578;11.574;2022-12-20T03:53:29;28.23;;;17.03;;
48002;SDS011;33768;48.578;11.574;2022-12-20T03:56:34;31.27;;;17.20;;
48002;SDS011;33768;48.578;11.574;2022-12-20T03:59:39;34.60;;;19.30;;
48002;SDS011;33768;48.578;11.574;2022-12-20T04:02:45;34.67;;;18.73;;
48002;SDS011;33768;48.578;11.574;2022-12-20T04:05:49;31.30;;;17.30;;
48002;SDS011;33768;48.578;11.574;2022-12-20T04:08:54;29.50;;;17.37;;
48002;SDS011;33768;48.578;11.574;2022-12-20T04:12:05;29.97;;;17.40;;
48002;SDS011;33768;48.578;11.574;2022-12-20T04:15:12;29.10;;;16.53;;
48002;SDS011;33768;48.578;11.574;2022-12-20T04:18:18;31.77;;;17.40;;
48002;SDS011;33768;48.578;11.574;2022-12-20T04:21:24;26.10;;;16.67;;
48002;SDS011;33768;48.578;11.574;2022-12-20T04:24:33;34.87;;;16.53;;
48002;SDS011;33768;48.578;11.574;2022-12-20T04:27:47;29.03;;;15.77;;
48002;SDS011;33768;48.578;11.574;2022-12-20T04:30:51;30.50;;;16.60;;
48002;SDS011;33768;48.578;11.574;2022-12-20T04:34:00;30.27;;;17.43;;
48002;SDS011;33768;48.578;11.574;2022-12-20T04:37:06;33.37;;;16.90;;
48002;SDS011;33768;48.578;11.574;2022-12-20T04:40:24;29.60;;;16.03;;
48002;SDS011;33768;48.578;11.574;2022-12-20T04:43:32;30.47;;;16.93;;
48002;SDS011;33768;48.578;11.574;2022-12-20T04:46:37;29.03;;;16.13;;
48002;SDS011;33768;48.578;11.574;2022-12-20T04:49:44;27.60;;;15.73;;
48002;SDS011;33768;48.578;11.574;2022-12-20T04:52:48;29.43;;;16.70;;
48002;SDS011;33768;48.578;11.574;2022-12-20T04:56:12;26.80;;;15.70;;
48002;SDS011;33768;48.578;11.574;2022-12-20T04:59:17;27.57;;;15.10;;
48002;SDS011;33768;48.578;11.574;2022-12-20T05:02:25;28.57;;;16.77;;
48002;SDS011;33768;48.578;11.574;2022-12-20T05:05:34;28.20;;;15.97;;
48002;SDS011;33768;48.578;11.574;2022-12-20T05:08:38;26.67;;;16.40;;
48002;SDS011;33768;48.578;11.574;2022-12-20T05:11:43;24.80;;;15.47;;
48002;SDS011;33768;48.578;11.574;2022-12-20T05:14:47;29.20;;;15.20;;
48002;SDS011;33768;48.578;11.574;2022-12-20T05:17:54;26.97;;;16.93;;
48002;SDS011;33768;48.578;11.574;2022-12-20T05:21:03;28.53;;;16.37;;
48002;SDS011;33768;48.578;11.574;2022-12-20T05:24:29;31.20;;;15.90;;
48002;SDS011;33768;48.578;11.574;2022-12-20T05:28:05;28.50;;;15.73;;
48002;SDS011;33768;48.578;11.574;2022-12-20T05:31:12;27.03;;;15.37;;
48002;SDS011;33768;48.578;11.574;2022-12-20T05:34:17;34.47;;;16.93;;
48002;SDS011;33768;48.578;11.574;2022-12-20T05:37:26;23.87;;;14.83;;
48002;SDS011;33768;48.578;11.574;2022-12-20T05:40:32;26.33;;;14.87;;
48002;SDS011;33768;48.578;11.574;2022-12-20T05:43:36;27.57;;;14.90;;
48002;SDS011;33768;48.578;11.574;2022-12-20T05:46:42;28.67;;;16.07;;
48002;SDS011;33768;48.578;11.574;2022-12-20T05:49:52;28.00;;;15.60;;
48002;SDS011;33768;48.578;11.574;2022-12-20T05:52:56;30.07;;;15.43;;
48002;SDS011;33768;48.578;11.574;2022-12-20T05:56:00;28.73;;;15.83;;
48002;SDS011;33768;48.578;11.574;2022-12-20T05:59:10;24.67;;;15.33;;
48002;SDS011;33768;48.578;11.574;2022-12-20T06:02:14;23.97;;;15.23;;
48002;SDS011;33768;48.578;11.574;2022-12-20T06:05:19;26.97;;;15.13;;
48002;SDS011;33768;48.578;11.574;2022-12-20T06:08:24;25.80;;;15.60;;
48002;SDS011;33768;48.578;11.574;2022-12-20T06:11:30;30.57;;;16.83;;
48002;SDS011;33768;48.578;11.574;2022-12-20T06:14:47;30.17;;;17.43;;
48002;SDS011;33768;48.578;11.574;2022-12-20T06:17:51;27.53;;;15.67;;
48002;SDS011;33768;48.578;11.574;2022-12-20T06:20:55;29.67;;;16.13;;
48002;SDS011;33768;48.578;11.574;2022-12-20T06:24:01;26.90;;;15.53;;
48002;SDS011;33768;48.578;11.574;2022-12-20T06:27:06;27.20;;;15.77;;
48002;SDS011;33768;48.578;11.574;2022-12-20T06:30:11;25.93;;;15.40;;
48002;SDS011;33768;48.578;11.574;2022-12-20T06:33:35;28.33;;;15.50;;
48002;SDS011;33768;48.578;11.574;2022-12-20T06:36:40;25.97;;;15.87;;
48002;SDS011;33768;48.578;11.574;2022-12-20T06:39:47;30.40;;;17.03;;
48002;SDS011;33768;48.578;11.574;2022-12-20T06:42:51;41.73;;;23.37;;
48002;SDS011;33768;48.578;11.574;2022-12-20T06:45:59;39.40;;;23.77;;
48002;SDS011;33768;48.578;11.574;2022-12-20T06:49:03;39.47;;;21.27;;
48002;SDS011;33768;48.578;11.574;2022-12-20T06:52:08;31.57;;;17.97;;
48002;SDS011;33768;48.578;11.574;2022-12-20T06:55:21;27.43;;;15.70;;
48002;SDS011;33768;48.578;11.574;2022-12-20T06:58:26;29.03;;;16.10;;
48002;SDS011;33768;48.578;11.574;2022-12-20T07:01:30;30.00;;;16.13;;
48002;SDS011;33768;48.578;11.574;2022-12-20T07:04:34;28.67;;;16.20;;
48002;SDS011;33768;48.578;11.574;2022-12-20T07:07:39;26.57;;;16.47;;
48002;SDS011;33768;48.578;11.574;2022-12-20T07:10:44;28.43;;;16.23;;
48002;SDS011;33768;48.578;11.574;2022-12-20T07:13:48;31.43;;;16.50;;
48002;SDS011;33768;48.578;11.574;2022-12-20T07:16:53;29.27;;;16.77;;
48002;SDS011;33768;48.578;11.574;2022-12-20T07:19:57;26.37;;;15.53;;
48002;SDS011;33768;48.578;11.574;2022-12-20T07:23:02;28.43;;;16.47;;
48002;SDS011;33768;48.578;11.574;2022-12-20T07:26:06;32.20;;;17.03;;
48002;SDS011;33768;48.578;11.574;2022-12-20T07:29:13;24.80;;;15.70;;
48002;SDS011;33768;48.578;11.574;2022-12-20T07:32:17;26.47;;;15.27;;
48002;SDS011;33768;48.578;11.574;2022-12-20T07:35:21;27.17;;;15.63;;
48002;SDS011;33768;48.578;11.574;2022-12-20T07:38:26;27.87;;;16.57;;
48002;SDS011;33768;48.578;11.574;2022-12-20T07:41:31;24.43;;;15.67;;
48002;SDS011;33768;48.578;11.574;2022-12-20T07:44:34;24.90;;;16.13;;
48002;SDS011;33768;48.578;11.574;2022-12-20T07:47:39;29.77;;;15.70;;
48002;SDS011;33768;48.578;11.574;2022-12-20T07:50:43;27.60;;;16.40;;
48002;SDS011;33768;48.578;11.574;2022-12-20T07:53:49;24.13;;;14.40;;
48002;SDS011;33768;48.578;11.574;2022-12-20T07:56:58;26.73;;;16.10;;
48002;SDS011;33768;48.578;11.574;2022-12-20T08:00:05;25.43;;;16.87;;
48002;SDS011;33768;48.578;11.574;2022-12-20T08:03:17;24.47;;;15.03;;
48002;SDS011;33768;48.578;11.574;2022-12-20T08:06:35;27.43;;;16.37;;
48002;SDS011;33768;48.578;11.574;2022-12-20T08:09:40;26.80;;;16.10;;
48002;SDS011;33768;48.578;11.574;2022-12-20T08:12:46;30.17;;;16.40;;
48002;SDS011;33768;48.578;11.574;2022-12-20T08:15:51;38.23;;;24.17;;
48002;SDS011;33768;48.578;11.574;2022-12-20T08:18:55;28.77;;;18.27;;
48002;SDS011;33768;48.578;11.574;2022-12-20T08:22:00;27.73;;;16.80;;
48002;SDS011;33768;48.578;11.574;2022-12-20T08:25:04;28.00;;;16.23;;
48002;SDS011;33768;48.578;11.574;2022-12-20T08:28:08;38.33;;;21.83;;
48002;SDS011;33768;48.578;11.574;2022-12-20T08:31:12;33.13;;;19.27;;
48002;SDS011;33768;48.578;11.574;2022-12-20T08:34:16;29.90;;;18.20;;
48002;SDS011;33768;48.578;11.574;2022-12-20T08:37:20;26.30;;;16.27;;
48002;SDS011;33768;48.578;11.574;2022-12-20T08:40:25;25.43;;;16.37;;
48002;SDS011;33768;48.578;11.574;2022-12-20T08:43:30;27.77;;;17.00;;
48002;SDS011;33768;48.578;11.574;2022-12-20T08:46:35;27.97;;;16.43;;
48002;SDS011;33768;48.578;11.574;2022-12-20T08:49:39;27.33;;;16.03;;
48002;SDS011;33768;48.578;11.574;2022-12-20T08:52:44;24.53;;;14.40;;
48002;SDS011;33768;48.578;11.574;2022-12-20T08:55:49;26.20;;;14.97;;
48002;SDS011;33768;48.578;11.574;2022-12-20T08:58:54;26.67;;;15.83;;
48002;SDS011;33768;48.578;11.574;2022-12-20T09:01:58;27.10;;;15.00;;
48002;SDS011;33768;48.578;11.574;2022-12-20T09:05:02;25.70;;;15.20;;
48002;SDS011;33768;48.578;11.574;2022-12-20T09:08:07;23.53;;;15.10;;
48002;SDS011;33768;48.578;11.574;2022-12-20T09:11:13;23.10;;;15.10;;
48002;SDS011;33768;48.578;11.574;2022-12-20T09:14:18;23.90;;;14.53;;
48002;SDS011;33768;48.578;11.574;2022-12-20T09:17:23;25.93;;;15.87;;
48002;SDS011;33768;48.578;11.574;2022-12-20T09:20:27;23.20;;;14.73;;
48002;SDS011;33768;48.578;11.574;2022-12-20T09:23:33;23.07;;;14.27;;
48002;SDS011;33768;48.578;11.574;2022-12-20T09:26:38;23.43;;;14.93;;
48002;SDS011;33768;48.578;11.574;2022-12-20T09:29:44;22.33;;;14.33;;
48002;SDS011;33768;48.578;11.574;2022-12-20T09:32:48;23.03;;;13.50;;
48002;SDS011;33768;48.578;11.574;2022-12-20T09:35:52;23.50;;;13.07;;
48002;SDS011;33768;48.578;11.574;2022-12-20T09:38:57;19.90;;;13.47;;
48002;SDS011;33768;48.578;11.574;2022-12-20T09:42:01;21.13;;;14.00;;
48002;SDS011;33768;48.578;11.574;2022-12-20T09:45:13;21.87;;;13.73;;
48002;SDS011;33768;48.578;11.574;2022-12-20T09:48:29;19.00;;;11.17;;
48002;SDS011;33768;48.578;11.574;2022-12-20T10:01:55;20.90;;;13.23;;
48002;SDS011;33768;48.578;11.574;2022-12-20T10:04:59;21.07;;;14.43;;
48002;SDS011;33768;48.578;11.574;2022-12-20T10:18:32;20.23;;;12.80;;
48002;SDS011;33768;48.578;11.574;2022-12-20T10:21:51;20.70;;;13.23;;
48002;SDS011;33768;48.578;11.574;2022-12-20T10:25:15;18.50;;;12.90;;
48002;SDS011;33768;48.578;11.574;2022-12-20T10:28:25;27.43;;;17.00;;
48002;SDS011;33768;48.578;11.574;2022-12-20T10:31:32;24.73;;;14.40;;
48002;SDS011;33768;48.578;11.574;2022-12-20T10:34:37;20.87;;;12.60;;
48002;SDS011;33768;48.578;11.574;2022-12-20T10:37:55;17.57;;;11.53;;
48002;SDS011;33768;48.578;11.574;2022-12-20T10:41:01;21.80;;;11.97;;
48002;SDS011;33768;48.578;11.574;2022-12-20T10:47:37;18.60;;;11.77;;
48002;SDS011;33768;48.578;11.574;2022-12-20T10:50:49;19.53;;;12.43;;
48002;SDS011;33768;48.578;11.574;2022-12-20T10:54:24;19.90;;;13.43;;
48002;SDS011;33768;48.578;11.574;2022-12-20T10:57:34;23.07;;;15.77;;
48002;SDS011;33768;48.578;11.574;2022-12-20T11:00:38;21.80;;;14.93;;
48002;SDS011;33768;48.578;11.574;2022-12-20T11:04:05;22.50;;;14.53;;
48002;SDS011;33768;48.578;11.574;2022-12-20T11:07:31;25.53;;;17.63;;
48002;SDS011;33768;48.578;11.574;2022-12-20T11:10:37;20.20;;;12.67;;
48002;SDS011;33768;48.578;11.574;2022-12-20T11:13:41;19.73;;;12.43;;
48002;SDS011;33768;48.578;11.574;2022-12-20T11:16:48;20.33;;;12.50;;
48002;SDS011;33768;48.578;11.574;2022-12-20T11:36:43;22.30;;;14.17;;
48002;SDS011;33768;48.578;11.574;2022-12-20T11:57:21;22.10;;;13.73;;
48002;SDS011;33768;48.578;11.574;2022-12-20T12:00:34;30.57;;;18.97;;
48002;SDS011;33768;48.578;11.574;2022-12-20T12:03:40;39.90;;;25.37;;
48002;SDS011;33768;48.578;11.574;2022-12-20T12:06:57;21.83;;;13.73;;
48002;SDS011;33768;48.578;11.574;2022-12-20T12:10:18;19.30;;;12.93;;
48002;SDS011;33768;48.578;11.574;2022-12-20T12:13:27;21.63;;;13.43;;
48002;SDS011;33768;48.578;11.574;2022-12-20T12:16:38;21.10;;;13.03;;
48002;SDS011;33768;48.578;11.574;2022-12-20T12:19:48;20.50;;;13.37;;
48002;SDS011;33768;48.578;11.574;2022-12-20T12:26:40;19.33;;;13.40;;
48002;SDS011;33768;48.578;11.574;2022-12-20T12:29:44;20.97;;;13.00;;
48002;SDS011;33768;48.578;11.574;2022-12-20T12:32:57;23.37;;;13.57;;
48002;SDS011;33768;48.578;11.574;2022-12-20T12:36:27;20.83;;;13.60;;
48002;SDS011;33768;48.578;11.574;2022-12-20T12:46:51;21.47;;;14.40;;
48002;SDS011;33768;48.578;11.574;2022-12-20T12:50:01;20.57;;;12.83;;
48002;SDS011;33768;48.578;11.574;2022-12-20T12:53:07;21.87;;;13.53;;
48002;SDS011;33768;48.578;11.574;2022-12-20T13:02:48;20.07;;;12.90;;
48002;SDS011;33768;48.578;11.574;2022-12-20T13:05:53;21.07;;;13.13;;
48002;SDS011;33768;48.578;11.574;2022-12-20T13:12:55;25.77;;;15.87;;
48002;SDS011;33768;48.578;11.574;2022-12-20T13:18:54;23.47;;;14.43;;
48002;SDS011;33768;48.578;11.574;2022-12-20T13:25:29;26.53;;;15.67;;
48002;SDS011;33768;48.578;11.574;2022-12-20T13:31:38;23.43;;;15.10;;
48002;SDS011;33768;48.578;11.574;2022-12-20T13:34:55;26.37;;;15.87;;
48002;SDS011;33768;48.578;11.574;2022-12-20T13:38:01;27.63;;;15.97;;
48002;SDS011;33768;48.578;11.574;2022-12-20T13:44:56;24.37;;;15.10;;
48002;SDS011;33768;48.578;11.574;2022-12-20T13:48:05;24.97;;;15.67;;
48002;SDS011;33768;48.578;11.574;2022-12-20T13:51:21;26.17;;;16.00;;
48002;SDS011;33768;48.578;11.574;2022-12-20T13:54:27;26.70;;;15.90;;
48002;SDS011;33768;48.578;11.574;2022-12-20T13:57:38;26.27;;;16.73;;
48002;SDS011;33768;48.578;11.574;2022-12-20T14:00:45;28.77;;;16.17;;
48002;SDS011;33768;48.578;11.574;2022-12-20T14:03:50;26.57;;;16.10;;
48002;SDS011;33768;48.578;11.574;2022-12-20T14:06:56;26.73;;;17.13;;
48002;SDS011;33768;48.578;11.574;2022-12-20T14:10:03;26.53;;;16.47;;
48002;SDS011;33768;48.578;11.574;2022-12-20T14:16:31;28.30;;;17.73;;
48002;SDS011;33768;48.578;11.574;2022-12-20T14:19:36;28.63;;;17.40;;
48002;SDS011;33768;48.578;11.574;2022-12-20T14:22:57;28.63;;;17.90;;
48002;SDS011;33768;48.578;11.574;2022-12-20T14:26:12;29.50;;;18.20;;
48002;SDS011;33768;48.578;11.574;2022-12-20T14:29:22;28.67;;;17.57;;
48002;SDS011;33768;48.578;11.574;2022-12-20T14:32:32;30.97;;;18.17;;
48002;SDS011;33768;48.578;11.574;2022-12-20T14:35:36;32.10;;;19.27;;
48002;SDS011;33768;48.578;11.574;2022-12-20T14:38:41;35.43;;;19.10;;
48002;SDS011;33768;48.578;11.574;2022-12-20T14:41:53;29.47;;;17.33;;
48002;SDS011;33768;48.578;11.574;2022-12-20T14:45:19;31.70;;;18.50;;
48002;SDS011;33768;48.578;11.574;2022-12-20T14:48:26;34.43;;;18.83;;
48002;SDS011;33768;48.578;11.574;2022-12-20T14:51:30;33.27;;;19.07;;
48002;SDS011;33768;48.578;11.574;2022-12-20T14:54:39;28.20;;;18.33;;
48002;SDS011;33768;48.578;11.574;2022-12-20T14:57:53;30.17;;;18.50;;
48002;SDS011;33768;48.578;11.574;2022-12-20T15:01:00;32.57;;;19.00;;
48002;SDS011;33768;48.578;11.574;2022-12-20T15:07:29;31.67;;;19.13;;
48002;SDS011;33768;48.578;11.574;2022-12-20T15:10:34;31.03;;;19.03;;
48002;SDS011;33768;48.578;11.574;2022-12-20T15:13:42;31.53;;;18.83;;
48002;SDS011;33768;48.578;11.574;2022-12-20T15:16:49;30.33;;;18.13;;
48002;SDS011;33768;48.578;11.574;2022-12-20T15:19:55;32.97;;;18.20;;
48002;SDS011;33768;48.578;11.574;2022-12-20T15:22:59;30.57;;;19.10;;
48002;SDS011;33768;48.578;11.574;2022-12-20T15:26:04;30.43;;;18.30;;
48002;SDS011;33768;48.578;11.574;2022-12-20T15:29:14;36.77;;;19.83;;
48002;SDS011;33768;48.578;11.574;2022-12-20T15:32:22;30.10;;;18.33;;
48002;SDS011;33768;48.578;11.574;2022-12-20T15:35:28;36.37;;;21.23;;
48002;SDS011;33768;48.578;11.574;2022-12-20T15:38:32;40.43;;;22.50;;
48002;SDS011;33768;48.578;11.574;2022-12-20T15:41:36;38.30;;;21.50;;
48002;SDS011;33768;48.578;11.574;2022-12-20T15:44:45;34.43;;;20.70;;
48002;SDS011;33768;48.578;11.574;2022-12-20T15:47:50;39.47;;;21.73;;
48002;SDS011;33768;48.578;11.574;2022-12-20T15:50:57;36.03;;;21.30;;
48002;SDS011;33768;48.578;11.574;2022-12-20T15:54:03;34.67;;;20.73;;
48002;SDS011;33768;48.578;11.574;2022-12-20T15:57:10;40.80;;;22.17;;
48002;SDS011;33768;48.578;11.574;2022-12-20T16:00:16;36.20;;;22.13;;
48002;SDS011;33768;48.578;11.574;2022-12-20T16:03:21;39.50;;;22.40;;
48002;SDS011;33768;48.578;11.574;2022-12-20T16:06:29;34.67;;;20.93;;
48002;SDS011;33768;48.578;11.574;2022-12-20T16:09:32;32.73;;;19.77;;
48002;SDS011;33768;48.578;11.574;2022-12-20T16:12:36;35.93;;;20.20;;
48002;SDS011;33768;48.578;11.574;2022-12-20T16:15:42;34.03;;;20.70;;
48002;SDS011;33768;48.578;11.574;2022-12-20T16:18:46;37.97;;;22.13;;
48002;SDS011;33768;48.578;11.574;2022-12-20T16:21:50;35.37;;;20.70;;
48002;SDS011;33768;48.578;11.574;2022-12-20T16:24:55;41.73;;;22.10;;
48002;SDS011;33768;48.578;11.574;2022-12-20T16:27:59;39.50;;;23.77;;
48002;SDS011;33768;48.578;11.574;2022-12-20T16:31:19;36.10;;;21.83;;
48002;SDS011;33768;48.578;11.574;2022-12-20T16:34:26;35.03;;;21.33;;
48002;SDS011;33768;48.578;11.574;2022-12-20T16:37:30;35.73;;;21.10;;
48002;SDS011;33768;48.578;11.574;2022-12-20T16:40:35;37.37;;;20.70;;
48002;SDS011;33768;48.578;11.574;2022-12-20T16:43:39;43.27;;;23.47;;
48002;SDS011;33768;48.578;11.574;2022-12-20T16:46:44;34.07;;;19.83;;
48002;SDS011;33768;48.578;11.574;2022-12-20T16:49:48;34.90;;;19.37;;
48002;SDS011;33768;48.578;11.574;2022-12-20T16:52:52;40.80;;;23.03;;
48002;SDS011;33768;48.578;11.574;2022-12-20T16:55:57;49.03;;;28.03;;
48002;SDS011;33768;48.578;11.574;2022-12-20T16:59:01;40.80;;;26.07;;
48002;SDS011;33768;48.578;11.574;2022-12-20T17:02:11;44.00;;;25.23;;
48002;SDS011;33768;48.578;11.574;2022-12-20T17:05:35;37.20;;;22.27;;
48002;SDS011;33768;48.578;11.574;2022-12-20T17:08:40;43.03;;;23.47;;
48002;SDS011;33768;48.578;11.574;2022-12-20T17:11:45;42.03;;;22.43;;
48002;SDS011;33768;48.578;11.574;2022-12-20T17:14:50;39.43;;;23.03;;
48002;SDS011;33768;48.578;11.574;2022-12-20T17:17:54;46.07;;;22.20;;
48002;SDS011;33768;48.578;11.574;2022-12-20T17:20:59;36.30;;;21.40;;
48002;SDS011;33768;48.578;11.574;2022-12-20T17:24:04;35.87;;;21.43;;
48002;SDS011;33768;48.578;11.574;2022-12-20T17:27:09;33.30;;;20.83;;
48002;SDS011;33768;48.578;11.574;2022-12-20T17:30:13;34.97;;;21.40;;
48002;SDS011;33768;48.578;11.574;2022-12-20T17:33:18;36.13;;;21.17;;
48002;SDS011;33768;48.578;11.574;2022-12-20T17:36:22;32.23;;;19.73;;
48002;SDS011;33768;48.578;11.574;2022-12-20T17:39:27;36.00;;;20.03;;
48002;SDS011;33768;48.578;11.574;2022-12-20T17:42:32;34.83;;;20.00;;
48002;SDS011;33768;48.578;11.574;2022-12-20T17:45:36;33.17;;;20.13;;
48002;SDS011;33768;48.578;11.574;2022-12-20T17:48:41;36.63;;;20.87;;
48002;SDS011;33768;48.578;11.574;2022-12-20T17:51:45;38.93;;;23.43;;
48002;SDS011;33768;48.578;11.574;2022-12-20T17:54:49;45.73;;;26.57;;
48002;SDS011;33768;48.578;11.574;2022-12-20T17:57:54;43.03;;;24.03;;
48002;SDS011;33768;48.578;11.574;2022-12-20T18:00:58;41.13;;;22.70;;
48002;SDS011;33768;48.578;11.574;2022-12-20T18:04:07;43.63;;;23.17;;
48002;SDS011;33768;48.578;11.574;2022-12-20T18:07:13;54.63;;;31.97;;
48002;SDS011;33768;48.578;11.574;2022-12-20T18:10:17;44.47;;;29.47;;
48002;SDS011;33768;48.578;11.574;2022-12-20T18:13:21;45.57;;;26.33;;
48002;SDS011;33768;48.578;11.574;2022-12-20T18:16:27;44.50;;;24.27;;
48002;SDS011;33768;48.578;11.574;2022-12-20T18:19:33;41.60;;;24.30;;
48002;SDS011;33768;48.578;11.574;2022-12-20T18:22:37;34.17;;;21.13;;
48002;SDS011;33768;48.578;11.574;2022-12-20T18:25:41;41.80;;;24.50;;
48002;SDS011;33768;48.578;11.574;2022-12-20T18:28:45;39.93;;;22.80;;
48002;SDS011;33768;48.578;11.574;2022-12-20T18:31:51;33.93;;;22.30;;
48002;SDS011;33768;48.578;11.574;2022-12-20T18:34:55;51.17;;;27.27;;
48002;SDS011;33768;48.578;11.574;2022-12-20T18:38:00;46.60;;;26.07;;
48002;SDS011;33768;48.578;11.574;2022-12-20T18:41:16;52.57;;;27.90;;
48002;SDS011;33768;48.578;11.574;2022-12-20T18:44:22;47.50;;;26.67;;
48002;SDS011;33768;48.578;11.574;2022-12-20T18:47:27;42.57;;;23.60;;
48002;SDS011;33768;48.578;11.574;2022-12-20T18:50:34;42.67;;;22.33;;
48002;SDS011;33768;48.578;11.574;2022-12-20T18:53:39;42.20;;;21.47;;
48002;SDS011;33768;48.578;11.574;2022-12-20T18:56:45;41.57;;;22.00;;
48002;SDS011;33768;48.578;11.574;2022-12-20T18:59:49;34.27;;;20.17;;
48002;SDS011;33768;48.578;11.574;2022-12-20T19:02:53;39.23;;;22.00;;
48002;SDS011;33768;48.578;11.574;2022-12-20T19:06:02;38.73;;;21.27;;
48002;SDS011;33768;48.578;11.574;2022-12-20T19:09:07;43.10;;;22.30;;
48002;SDS011;33768;48.578;11.574;2022-12-20T19:12:13;39.47;;;21.90;;
48002;SDS011;33768;48.578;11.574;2022-12-20T19:15:17;37.30;;;21.03;;
48002;SDS011;33768;48.578;11.574;2022-12-20T19:18:21;38.87;;;20.43;;
48002;SDS011;33768;48.578;11.574;2022-12-20T19:21:26;34.37;;;20.93;;
48002;SDS011;33768;48.578;11.574;2022-12-20T19:24:32;37.73;;;21.73;;
48002;SDS011;33768;48.578;11.574;2022-12-20T19:27:36;34.93;;;19.90;;
48002;SDS011;33768;48.578;11.574;2022-12-20T19:30:41;34.70;;;20.23;;
48002;SDS011;33768;48.578;11.574;2022-12-20T19:33:46;38.27;;;20.87;;
48002;SDS011;33768;48.578;11.574;2022-12-20T19:36:50;37.37;;;21.37;;
48002;SDS011;33768;48.578;11.574;2022-12-20T19:39:55;42.17;;;21.70;;
48002;SDS011;33768;48.578;11.574;2022-12-20T19:42:59;37.73;;;20.37;;
48002;SDS011;33768;48.578;11.574;2022-12-20T19:46:03;37.30;;;20.93;;
48002;SDS011;33768;48.578;11.574;2022-12-20T19:49:08;38.00;;;21.90;;
48002;SDS011;33768;48.578;11.574;2022-12-20T19:52:13;38.67;;;22.37;;
48002;SDS011;33768;48.578;11.574;2022-12-20T19:55:17;37.50;;;20.90;;
48002;SDS011;33768;48.578;11.574;2022-12-20T19:58:22;39.73;;;21.70;;